sensor_id;sensor_type;location;lat;lon;timestamp;pressure;altitude;pressure_sealevel;temperature;humidity
18504;BME280;9381;54.244;10.074;2024-02-23T00:04:18;97127.56;;;12.32;72.05
18504;BME280;9381;54.244;10.074;2024-02-23T00:09:20;97145.47;;;12.02;72.61
18504;BME280;9381;54.244;10.074;2024-02-23T00:14:21;97145.47;;;12.02;72.83
18504;BME280;9381;54.244;10.074;2024-02-23T00:19:22;97167.47;;;11.79;73.63
18504;BME280;9381;54.244;10.074;2024-02-23T00:24:23;97152.00;;;11.79;76.53
18504;BME280;9381;54.244;10.074;2024-02-23T00:29:24;97132.88;;;11.54;78.16
18504;BME280;9381;54.244;10.074;2024-02-23T00:34:24;97133.94;;;11.45;78.97
18504;BME280;9381;54.244;10.074;2024-02-23T00:39:25;97154.84;;;11.31;76.01
18504;BME280;9381;54.244;10.074;2024-02-23T00:44:25;97174.75;;;11.13;75.50
18504;BME280;9381;54.244;10.074;2024-02-23T00:49:26;97185.56;;;11.13;76.79
18504;BME280;9381;54.244;10.074;2024-02-23T00:54:26;97244.28;;;10.58;85.19
18504;BME280;9381;54.244;10.074;2024-02-23T00:59:26;97259.91;;;9.70;91.92
18504;BME280;9381;54.244;10.074;2024-02-23T01:04:27;97277.34;;;9.59;92.44
18504;BME280;9381;54.244;10.074;2024-02-23T01:09:27;97295.72;;;9.39;92.34
18504;BME280;9381;54.244;10.074;2024-02-23T01:14:27;97273.53;;;9.42;92.05
18504;BME280;9381;54.244;10.074;2024-02-23T01:19:28;97305.91;;;9.60;90.79
18504;BME280;9381;54.244;10.074;2024-02-23T01:24:28;97335.06;;;9.40;89.98
18504;BME280;9381;54.244;10.074;2024-02-23T01:29:29;97336.59;;;9.64;87.06
18504;BME280;9381;54.244;10.074;2024-02-23T01:34:29;97351.63;;;9.33;86.31
18504;BME280;9381;54.244;10.074;2024-02-23T01:39:30;97386.56;;;9.20;86.65
18504;BME280;9381;54.244;10.074;2024-02-23T01:44:30;97376.41;;;9.12;87.16
18504;BME280;9381;54.244;10.074;2024-02-23T01:49:31;97399.19;;;9.01;87.80
18504;BME280;9381;54.244;10.074;2024-02-23T01:54:33;97440.38;;;8.78;89.44
18504;BME280;9381;54.244;10.074;2024-02-23T01:59:35;97463.22;;;8.52;90.86
18504;BME280;9381;54.244;10.074;2024-02-23T02:04:38;97501.00;;;8.42;91.49
18504;BME280;9381;54.244;10.074;2024-02-23T02:09:38;97509.75;;;8.24;92.13
18504;BME280;9381;54.244;10.074;2024-02-23T02:14:38;97505.88;;;8.35;92.54
18504;BME280;9381;54.244;10.074;2024-02-23T02:19:46;97588.31;;;8.31;92.19
18504;BME280;9381;54.244;10.074;2024-02-23T02:24:47;97577.06;;;8.19;94.20
18504;BME280;9381;54.244;10.074;2024-02-23T02:29:50;97593.22;;;8.19;96.52
18504;BME280;9381;54.244;10.074;2024-02-23T02:34:51;97608.84;;;8.12;98.79
18504;BME280;9381;54.244;10.074;2024-02-23T02:39:51;97635.31;;;7.85;98.41
18504;BME280;9381;54.244;10.074;2024-02-23T02:44:51;97624.47;;;8.10;98.38
18504;BME280;9381;54.244;10.074;2024-02-23T02:49:51;97657.34;;;7.87;100.00
18504;BME280;9381;54.244;10.074;2024-02-23T02:54:52;97662.78;;;7.72;100.00
18504;BME280;9381;54.244;10.074;2024-02-23T02:59:52;97704.75;;;7.73;100.00
18504;BME280;9381;54.244;10.074;2024-02-23T03:04:53;97713.31;;;7.90;100.00
18504;BME280;9381;54.244;10.074;2024-02-23T03:09:55;97707.13;;;7.90;98.05
18504;BME280;9381;54.244;10.074;2024-02-23T03:14:56;97706.81;;;8.06;95.42
18504;BME280;9381;54.244;10.074;2024-02-23T03:19:56;97719.44;;;8.11;93.38
18504;BME280;9381;54.244;10.074;2024-02-23T03:24:57;97725.97;;;7.75;95.62
18504;BME280;9381;54.244;10.074;2024-02-23T03:29:58;97752.06;;;7.84;96.13
18504;BME280;9381;54.244;10.074;2024-02-23T03:34:58;97766.56;;;7.88;96.36
18504;BME280;9381;54.244;10.074;2024-02-23T03:39:58;97747.22;;;7.81;96.88
18504;BME280;9381;54.244;10.074;2024-02-23T03:45:00;97772.22;;;7.57;96.20
18504;BME280;9381;54.244;10.074;2024-02-23T03:50:01;97803.72;;;7.66;96.39
18504;BME280;9381;54.244;10.074;2024-02-23T03:55:01;97804.53;;;7.87;95.84
18504;BME280;9381;54.244;10.074;2024-02-23T04:00:01;97813.94;;;7.89;96.91
18504;BME280;9381;54.244;10.074;2024-02-23T04:05:03;97826.88;;;7.72;96.83
18504;BME280;9381;54.244;10.074;2024-02-23T04:10:03;97852.66;;;7.78;97.55
18504;BME280;9381;54.244;10.074;2024-02-23T04:15:04;97854.31;;;7.84;97.10
18504;BME280;9381;54.244;10.074;2024-02-23T04:20:07;97869.88;;;7.77;97.38
18504;BME280;9381;54.244;10.074;2024-02-23T04:25:08;97867.22;;;7.72;97.10
18504;BME280;9381;54.244;10.074;2024-02-23T04:30:09;97883.06;;;7.59;98.39
18504;BME280;9381;54.244;10.074;2024-02-23T04:35:10;97879.84;;;7.67;98.17
18504;BME280;9381;54.244;10.074;2024-02-23T04:40:10;97902.94;;;7.63;97.75
18504;BME280;9381;54.244;10.074;2024-02-23T04:45:11;97910.78;;;7.74;96.04
18504;BME280;9381;54.244;10.074;2024-02-23T04:50:12;97932.81;;;7.71;95.97
18504;BME280;9381;54.244;10.074;2024-02-23T04:55:13;97937.13;;;7.62;96.01
18504;BME280;9381;54.244;10.074;2024-02-23T05:00:13;97960.81;;;7.80;95.05
18504;BME280;9381;54.244;10.074;2024-02-23T05:05:14;97942.53;;;7.87;93.55
18504;BME280;9381;54.244;10.074;2024-02-23T05:10:14;97959.19;;;7.79;93.75
18504;BME280;9381;54.244;10.074;2024-02-23T05:15:16;97968.09;;;7.80;93.26
18504;BME280;9381;54.244;10.074;2024-02-23T05:20:17;97983.41;;;7.74;92.23
18504;BME280;9381;54.244;10.074;2024-02-23T05:25:17;98000.53;;;7.48;93.52
18504;BME280;9381;54.244;10.074;2024-02-23T05:30:18;97996.03;;;7.74;93.02
18504;BME280;9381;54.244;10.074;2024-02-23T05:35:18;98010.28;;;7.64;92.77
18504;BME280;9381;54.244;10.074;2024-02-23T05:40:19;98007.59;;;7.69;92.82
18504;BME280;9381;54.244;10.074;2024-02-23T05:45:19;98037.78;;;7.81;92.45
18504;BME280;9381;54.244;10.074;2024-02-23T05:50:20;98045.75;;;7.56;93.08
18504;BME280;9381;54.244;10.074;2024-02-23T05:55:20;98045.25;;;7.69;92.88
18504;BME280;9381;54.244;10.074;2024-02-23T06:00:20;98059.16;;;7.51;93.65
18504;BME280;9381;54.244;10.074;2024-02-23T06:05:21;98097.03;;;7.45;94.20
18504;BME280;9381;54.244;10.074;2024-02-23T06:10:22;98066.97;;;7.53;93.17
18504;BME280;9381;54.244;10.074;2024-02-23T06:15:22;98080.16;;;7.54;93.23
18504;BME280;9381;54.244;10.074;2024-02-23T06:20:22;98089.91;;;7.70;92.70
18504;BME280;9381;54.244;10.074;2024-02-23T06:25:23;98112.50;;;7.64;92.04
18504;BME280;9381;54.244;10.074;2024-02-23T06:30:23;98108.53;;;7.82;91.36
18504;BME280;9381;54.244;10.074;2024-02-23T06:35:23;98100.41;;;7.72;90.96
18504;BME280;9381;54.244;10.074;2024-02-23T06:40:24;98150.69;;;7.66;90.80
18504;BME280;9381;54.244;10.074;2024-02-23T06:45:24;98154.47;;;7.70;91.29
18504;BME280;9381;54.244;10.074;2024-02-23T06:50:26;98164.28;;;7.91;90.30
18504;BME280;9381;54.244;10.074;2024-02-23T06:55:26;98180.41;;;7.86;91.22
18504;BME280;9381;54.244;10.074;2024-02-23T07:00:26;98191.63;;;7.78;90.38
18504;BME280;9381;54.244;10.074;2024-02-23T07:05:27;98207.72;;;7.68;90.96
18504;BME280;9381;54.244;10.074;2024-02-23T07:10:27;98220.63;;;7.66;90.62
18504;BME280;9381;54.244;10.074;2024-02-23T07:15:27;98241.59;;;7.64;91.47
18504;BME280;9381;54.244;10.074;2024-02-23T07:20:28;98256.13;;;7.68;89.45
18504;BME280;9381;54.244;10.074;2024-02-23T07:25:28;98264.22;;;7.68;89.03
18504;BME280;9381;54.244;10.074;2024-02-23T07:30:29;98267.38;;;7.60;88.87
18504;BME280;9381;54.244;10.074;2024-02-23T07:35:29;98272.56;;;7.72;91.04
18504;BME280;9381;54.244;10.074;2024-02-23T07:40:29;98271.72;;;7.66;91.06
18504;BME280;9381;54.244;10.074;2024-02-23T07:45:32;98302.47;;;7.75;90.32
18504;BME280;9381;54.244;10.074;2024-02-23T07:50:33;98310.50;;;7.70;89.26
18504;BME280;9381;54.244;10.074;2024-02-23T07:55:33;98328.84;;;7.78;90.09
18504;BME280;9381;54.244;10.074;2024-02-23T08:00:34;98340.66;;;7.72;89.58
18504;BME280;9381;54.244;10.074;2024-02-23T08:05:37;98347.66;;;7.47;90.02
18504;BME280;9381;54.244;10.074;2024-02-23T08:10:38;98347.50;;;7.58;90.86
18504;BME280;9381;54.244;10.074;2024-02-23T08:15:38;98350.06;;;8.01;89.76
18504;BME280;9381;54.244;10.074;2024-02-23T08:20:38;98355.50;;;7.80;88.40
18504;BME280;9381;54.244;10.074;2024-02-23T08:25:39;98365.81;;;7.88;89.16
18504;BME280;9381;54.244;10.074;2024-02-23T08:30:39;98375.44;;;7.84;88.04
18504;BME280;9381;54.244;10.074;2024-02-23T08:35:39;98384.94;;;7.91;86.42
18504;BME280;9381;54.244;10.074;2024-02-23T08:40:40;98389.75;;;7.89;86.84
18504;BME280;9381;54.244;10.074;2024-02-23T08:45:40;98426.25;;;7.80;86.73
18504;BME280;9381;54.244;10.074;2024-02-23T08:50:41;98411.97;;;8.01;88.42
18504;BME280;9381;54.244;10.074;2024-02-23T08:55:41;98423.91;;;8.15;87.65
18504;BME280;9381;54.244;10.074;2024-02-23T09:00:42;98411.81;;;8.49;86.75
18504;BME280;9381;54.244;10.074;2024-02-23T09:05:42;98424.00;;;8.57;84.91
18504;BME280;9381;54.244;10.074;2024-02-23T09:10:42;98449.84;;;8.99;83.60
18504;BME280;9381;54.244;10.074;2024-02-23T09:15:43;98444.03;;;9.12;81.79
18504;BME280;9381;54.244;10.074;2024-02-23T09:20:43;98454.91;;;9.32;80.38
18504;BME280;9381;54.244;10.074;2024-02-23T09:25:44;98458.72;;;9.41;79.94
18504;BME280;9381;54.244;10.074;2024-02-23T09:30:44;98475.34;;;9.18;79.25
18504;BME280;9381;54.244;10.074;2024-02-23T09:35:44;98481.75;;;9.58;79.27
18504;BME280;9381;54.244;10.074;2024-02-23T09:40:45;98493.84;;;9.56;79.79
18504;BME280;9381;54.244;10.074;2024-02-23T09:45:46;98501.41;;;9.54;79.36
18504;BME280;9381;54.244;10.074;2024-02-23T09:50:47;98497.81;;;9.33;79.63
18504;BME280;9381;54.244;10.074;2024-02-23T09:55:50;98521.94;;;9.60;78.22
18504;BME280;9381;54.244;10.074;2024-02-23T10:00:51;98530.38;;;9.78;78.43
18504;BME280;9381;54.244;10.074;2024-02-23T10:05:52;98527.97;;;9.87;78.46
18504;BME280;9381;54.244;10.074;2024-02-23T10:10:52;98554.41;;;9.75;76.12
18504;BME280;9381;54.244;10.074;2024-02-23T10:15:53;98561.38;;;9.66;76.80
18504;BME280;9381;54.244;10.074;2024-02-23T10:20:53;98579.50;;;9.29;77.30
18504;BME280;9381;54.244;10.074;2024-02-23T10:25:54;98593.38;;;9.47;77.40
18504;BME280;9381;54.244;10.074;2024-02-23T10:30:54;98610.25;;;9.28;79.43
18504;BME280;9381;54.244;10.074;2024-02-23T10:35:58;98616.56;;;9.48;78.95
18504;BME280;9381;54.244;10.074;2024-02-23T10:41:02;98614.03;;;9.27;77.84
18504;BME280;9381;54.244;10.074;2024-02-23T10:46:05;98641.13;;;9.47;78.19
18504;BME280;9381;54.244;10.074;2024-02-23T10:51:13;98633.31;;;9.92;75.93
18504;BME280;9381;54.244;10.074;2024-02-23T10:56:14;98651.22;;;10.03;76.12
18504;BME280;9381;54.244;10.074;2024-02-23T11:01:15;98660.16;;;9.67;75.80
18504;BME280;9381;54.244;10.074;2024-02-23T11:06:16;98666.63;;;9.66;76.46
18504;BME280;9381;54.244;10.074;2024-02-23T11:11:21;98673.19;;;9.80;75.47
18504;BME280;9381;54.244;10.074;2024-02-23T11:16:22;98658.53;;;11.09;71.51
18504;BME280;9381;54.244;10.074;2024-02-23T11:21:34;98649.88;;;11.02;69.89
18504;BME280;9381;54.244;10.074;2024-02-23T11:26:37;98653.75;;;10.24;71.63
18504;BME280;9381;54.244;10.074;2024-02-23T11:31:44;98665.03;;;10.16;74.65
18504;BME280;9381;54.244;10.074;2024-02-23T11:36:50;98666.19;;;9.84;74.86
18504;BME280;9381;54.244;10.074;2024-02-23T11:41:51;98669.19;;;9.92;75.88
18504;BME280;9381;54.244;10.074;2024-02-23T11:46:51;98662.06;;;10.13;76.78
18504;BME280;9381;54.244;10.074;2024-02-23T11:51:53;98652.38;;;10.27;74.49
18504;BME280;9381;54.244;10.074;2024-02-23T11:56:53;98659.31;;;10.08;73.35
18504;BME280;9381;54.244;10.074;2024-02-23T12:01:54;98657.19;;;10.10;72.27
18504;BME280;9381;54.244;10.074;2024-02-23T12:06:54;98660.25;;;10.38;72.04
18504;BME280;9381;54.244;10.074;2024-02-23T12:11:56;98662.69;;;10.30;72.05
18504;BME280;9381;54.244;10.074;2024-02-23T12:16:57;98664.84;;;10.28;69.86
18504;BME280;9381;54.244;10.074;2024-02-23T12:22:01;98670.94;;;10.75;68.24
18504;BME280;9381;54.244;10.074;2024-02-23T12:27:01;98668.44;;;10.53;67.96
18504;BME280;9381;54.244;10.074;2024-02-23T12:32:06;98669.09;;;10.14;68.89
18504;BME280;9381;54.244;10.074;2024-02-23T12:37:07;98665.88;;;10.27;70.84
18504;BME280;9381;54.244;10.074;2024-02-23T12:42:08;98675.53;;;10.08;69.59
18504;BME280;9381;54.244;10.074;2024-02-23T12:47:08;98666.41;;;10.19;70.41
18504;BME280;9381;54.244;10.074;2024-02-23T12:52:09;98668.59;;;10.22;71.29
18504;BME280;9381;54.244;10.074;2024-02-23T12:57:10;98680.22;;;10.27;70.32
18504;BME280;9381;54.244;10.074;2024-02-23T13:02:11;98685.91;;;10.36;70.91
18504;BME280;9381;54.244;10.074;2024-02-23T13:07:12;98682.03;;;10.12;68.90
18504;BME280;9381;54.244;10.074;2024-02-23T13:12:12;98688.66;;;10.41;70.35
18504;BME280;9381;54.244;10.074;2024-02-23T13:17:13;98689.81;;;10.60;69.05
18504;BME280;9381;54.244;10.074;2024-02-23T13:22:13;98698.38;;;10.42;69.20
18504;BME280;9381;54.244;10.074;2024-02-23T13:27:14;98696.53;;;10.57;69.08
18504;BME280;9381;54.244;10.074;2024-02-23T13:32:14;98704.44;;;10.69;68.94
18504;BME280;9381;54.244;10.074;2024-02-23T13:37:14;98697.41;;;10.68;66.74
18504;BME280;9381;54.244;10.074;2024-02-23T13:42:15;98695.81;;;10.82;66.36
18504;BME280;9381;54.244;10.074;2024-02-23T13:47:15;98702.78;;;10.58;65.59
18504;BME280;9381;54.244;10.074;2024-02-23T13:52:15;98696.88;;;10.76;65.61
18504;BME280;9381;54.244;10.074;2024-02-23T13:57:16;98708.50;;;10.71;64.64
18504;BME280;9381;54.244;10.074;2024-02-23T14:02:16;98702.19;;;10.51;65.62
18504;BME280;9381;54.244;10.074;2024-02-23T14:07:23;98697.41;;;10.68;66.87
18504;BME280;9381;54.244;10.074;2024-02-23T14:12:24;98698.41;;;10.47;68.46
18504;BME280;9381;54.244;10.074;2024-02-23T14:17:24;98704.06;;;10.45;68.95
18504;BME280;9381;54.244;10.074;2024-02-23T14:22:25;98706.28;;;10.53;68.26
18504;BME280;9381;54.244;10.074;2024-02-23T14:27:25;98708.44;;;10.51;68.50
18504;BME280;9381;54.244;10.074;2024-02-23T14:32:27;98697.94;;;10.65;69.55
18504;BME280;9381;54.244;10.074;2024-02-23T14:37:27;98703.56;;;10.58;69.95
18504;BME280;9381;54.244;10.074;2024-02-23T14:42:27;98706.56;;;10.57;67.73
18504;BME280;9381;54.244;10.074;2024-02-23T14:47:28;98697.91;;;10.55;68.91
18504;BME280;9381;54.244;10.074;2024-02-23T14:52:28;98703.03;;;10.56;67.67
18504;BME280;9381;54.244;10.074;2024-02-23T14:57:29;98697.13;;;10.59;67.78
18504;BME280;9381;54.244;10.074;2024-02-23T15:02:29;98702.19;;;10.46;67.28
18504;BME280;9381;54.244;10.074;2024-02-23T15:07:29;98692.22;;;10.51;67.77
18504;BME280;9381;54.244;10.074;2024-02-23T15:12:31;98718.44;;;10.61;67.12
18504;BME280;9381;54.244;10.074;2024-02-23T15:17:31;98711.34;;;10.40;66.37
18504;BME280;9381;54.244;10.074;2024-02-23T15:22:32;98728.66;;;10.44;66.88
18504;BME280;9381;54.244;10.074;2024-02-23T15:27:32;98733.59;;;10.57;66.20
18504;BME280;9381;54.244;10.074;2024-02-23T15:32:33;98743.91;;;10.70;66.93
18504;BME280;9381;54.244;10.074;2024-02-23T15:37:34;98740.03;;;10.51;66.02
18504;BME280;9381;54.244;10.074;2024-02-23T15:42:35;98734.88;;;10.49;66.92
18504;BME280;9381;54.244;10.074;2024-02-23T15:47:36;98742.59;;;10.26;66.11
18504;BME280;9381;54.244;10.074;2024-02-23T15:52:36;98746.97;;;10.32;66.18
18504;BME280;9381;54.244;10.074;2024-02-23T15:57:38;98749.47;;;10.43;67.07
18504;BME280;9381;54.244;10.074;2024-02-23T16:02:39;98767.56;;;10.38;66.76
18504;BME280;9381;54.244;10.074;2024-02-23T16:07:39;98766.72;;;10.37;67.65
18504;BME280;9381;54.244;10.074;2024-02-23T16:12:40;98772.19;;;10.47;66.61
18504;BME280;9381;54.244;10.074;2024-02-23T16:17:40;98770.59;;;10.51;67.51
18504;BME280;9381;54.244;10.074;2024-02-23T16:22:43;98779.50;;;10.52;68.32
18504;BME280;9381;54.244;10.074;2024-02-23T16:27:43;98781.59;;;10.40;67.50
18504;BME280;9381;54.244;10.074;2024-02-23T16:32:44;98788.94;;;10.49;67.81
18504;BME280;9381;54.244;10.074;2024-02-23T16:37:45;98808.97;;;10.53;68.72
18504;BME280;9381;54.244;10.074;2024-02-23T16:42:45;98814.22;;;10.28;68.55
18504;BME280;9381;54.244;10.074;2024-02-23T16:47:45;98830.97;;;10.30;70.54
18504;BME280;9381;54.244;10.074;2024-02-23T16:52:46;98837.47;;;9.98;73.77
18504;BME280;9381;54.244;10.074;2024-02-23T16:57:47;98843.38;;;9.95;75.10
18504;BME280;9381;54.244;10.074;2024-02-23T17:02:47;98836.13;;;9.95;75.67
18504;BME280;9381;54.244;10.074;2024-02-23T17:07:48;98839.47;;;9.81;77.16
18504;BME280;9381;54.244;10.074;2024-02-23T17:12:48;98852.56;;;9.67;78.00
18504;BME280;9381;54.244;10.074;2024-02-23T17:17:49;98849.97;;;9.46;79.58
18504;BME280;9381;54.244;10.074;2024-02-23T17:22:49;98852.25;;;9.59;80.00
18504;BME280;9381;54.244;10.074;2024-02-23T17:27:49;98859.41;;;9.48;81.07
18504;BME280;9381;54.244;10.074;2024-02-23T17:32:52;98855.25;;;9.36;81.56
18504;BME280;9381;54.244;10.074;2024-02-23T17:37:52;98870.72;;;9.19;82.59
18504;BME280;9381;54.244;10.074;2024-02-23T17:42:53;98870.06;;;9.12;83.08
18504;BME280;9381;54.244;10.074;2024-02-23T17:47:53;98876.47;;;9.06;83.34
18504;BME280;9381;54.244;10.074;2024-02-23T17:52:54;98883.88;;;8.94;84.10
18504;BME280;9381;54.244;10.074;2024-02-23T17:57:54;98888.31;;;8.83;84.30
18504;BME280;9381;54.244;10.074;2024-02-23T18:02:54;98902.53;;;8.79;84.02
18504;BME280;9381;54.244;10.074;2024-02-23T18:07:55;98905.81;;;8.81;84.61
18504;BME280;9381;54.244;10.074;2024-02-23T18:12:55;98917.44;;;8.65;84.68
18504;BME280;9381;54.244;10.074;2024-02-23T18:17:56;98921.56;;;8.72;84.89
18504;BME280;9381;54.244;10.074;2024-02-23T18:22:56;98924.97;;;8.63;84.76
18504;BME280;9381;54.244;10.074;2024-02-23T18:27:56;98934.66;;;8.64;85.02
18504;BME280;9381;54.244;10.074;2024-02-23T18:32:57;98933.84;;;8.63;86.49
18504;BME280;9381;54.244;10.074;2024-02-23T18:37:57;98935.09;;;8.56;86.15
18504;BME280;9381;54.244;10.074;2024-02-23T18:42:57;98948.22;;;8.53;87.52
18504;BME280;9381;54.244;10.074;2024-02-23T18:47:58;98951.72;;;8.53;88.49
18504;BME280;9381;54.244;10.074;2024-02-23T18:52:58;98958.13;;;8.47;88.26
18504;BME280;9381;54.244;10.074;2024-02-23T18:57:58;98962.19;;;8.33;89.61
18504;BME280;9381;54.244;10.074;2024-02-23T19:02:59;98962.34;;;8.43;89.64
18504;BME280;9381;54.244;10.074;2024-02-23T19:07:59;98954.19;;;8.38;89.08
18504;BME280;9381;54.244;10.074;2024-02-23T19:13:00;98974.59;;;8.34;89.46
18504;BME280;9381;54.244;10.074;2024-02-23T19:18:00;98969.69;;;8.31;89.95
18504;BME280;9381;54.244;10.074;2024-02-23T19:23:01;98973.13;;;8.27;90.57
18504;BME280;9381;54.244;10.074;2024-02-23T19:28:03;98976.03;;;8.25;90.54
18504;BME280;9381;54.244;10.074;2024-02-23T19:33:04;98992.94;;;8.21;90.67
18504;BME280;9381;54.244;10.074;2024-02-23T19:38:04;98994.63;;;8.10;91.58
18504;BME280;9381;54.244;10.074;2024-02-23T19:43:05;98993.47;;;8.06;92.29
18504;BME280;9381;54.244;10.074;2024-02-23T19:48:05;99005.84;;;8.07;91.36
18504;BME280;9381;54.244;10.074;2024-02-23T19:53:06;99004.03;;;7.96;91.55
18504;BME280;9381;54.244;10.074;2024-02-23T19:58:07;99004.31;;;7.95;91.32
18504;BME280;9381;54.244;10.074;2024-02-23T20:03:07;99001.53;;;7.78;93.01
18504;BME280;9381;54.244;10.074;2024-02-23T20:08:08;99010.09;;;7.75;93.41
18504;BME280;9381;54.244;10.074;2024-02-23T20:13:08;99018.16;;;7.87;92.30
18504;BME280;9381;54.244;10.074;2024-02-23T20:18:09;99021.06;;;7.85;92.62
18504;BME280;9381;54.244;10.074;2024-02-23T20:23:09;99019.47;;;7.73;92.82
18504;BME280;9381;54.244;10.074;2024-02-23T20:28:10;99023.59;;;7.64;93.22
18504;BME280;9381;54.244;10.074;2024-02-23T20:33:10;99034.63;;;7.62;92.97
18504;BME280;9381;54.244;10.074;2024-02-23T20:38:11;99043.63;;;7.56;93.25
18504;BME280;9381;54.244;10.074;2024-02-23T20:43:11;99060.34;;;7.58;93.38
18504;BME280;9381;54.244;10.074;2024-02-23T20:48:11;99059.66;;;7.51;94.22
18504;BME280;9381;54.244;10.074;2024-02-23T20:53:13;99055.94;;;7.29;94.86
18504;BME280;9381;54.244;10.074;2024-02-23T20:58:13;99067.28;;;7.31;95.11
18504;BME280;9381;54.244;10.074;2024-02-23T21:03:15;99067.53;;;7.18;95.36
18504;BME280;9381;54.244;10.074;2024-02-23T21:08:16;99069.16;;;7.31;94.52
18504;BME280;9381;54.244;10.074;2024-02-23T21:13:16;99069.97;;;7.31;94.46
18504;BME280;9381;54.244;10.074;2024-02-23T21:18:16;99068.81;;;7.27;94.56
18504;BME280;9381;54.244;10.074;2024-02-23T21:23:18;99076.53;;;7.12;95.08
18504;BME280;9381;54.244;10.074;2024-02-23T21:28:18;99084.72;;;7.17;94.44
18504;BME280;9381;54.244;10.074;2024-02-23T21:33:18;99087.75;;;7.09;95.19
18504;BME280;9381;54.244;10.074;2024-02-23T21:38:19;99093.47;;;7.01;95.23
18504;BME280;9381;54.244;10.074;2024-02-23T21:43:19;99102.13;;;7.15;94.04
18504;BME280;9381;54.244;10.074;2024-02-23T21:48:19;99111.03;;;7.04;94.92
18504;BME280;9381;54.244;10.074;2024-02-23T21:53:20;99111.03;;;7.04;95.50
18504;BME280;9381;54.244;10.074;2024-02-23T21:58:20;99113.00;;;7.08;95.65
18504;BME280;9381;54.244;10.074;2024-02-23T22:03:20;99115.81;;;7.13;96.44
18504;BME280;9381;54.244;10.074;2024-02-23T22:08:21;99108.53;;;7.25;96.41
18504;BME280;9381;54.244;10.074;2024-02-23T22:13:21;99104.94;;;7.31;96.82
18504;BME280;9381;54.244;10.074;2024-02-23T22:18:23;99107.25;;;7.51;96.18
18504;BME280;9381;54.244;10.074;2024-02-23T22:23:24;99112.72;;;7.67;95.33
18504;BME280;9381;54.244;10.074;2024-02-23T22:28:24;99101.13;;;7.78;94.94
18504;BME280;9381;54.244;10.074;2024-02-23T22:33:24;99114.91;;;7.82;93.71
18504;BME280;9381;54.244;10.074;2024-02-23T22:38:25;99111.63;;;7.91;93.46
18504;BME280;9381;54.244;10.074;2024-02-23T22:43:25;99107.88;;;7.92;92.84
18504;BME280;9381;54.244;10.074;2024-02-23T22:48:28;99098.97;;;7.92;92.92
18504;BME280;9381;54.244;10.074;2024-02-23T22:53:28;99102.38;;;7.87;93.41
18504;BME280;9381;54.244;10.074;2024-02-23T22:58:29;99108.03;;;7.74;92.72
18504;BME280;9381;54.244;10.074;2024-02-23T23:03:29;99107.47;;;7.72;92.62
18504;BME280;9381;54.244;10.074;2024-02-23T23:08:29;99113.22;;;7.64;92.78
18504;BME280;9381;54.244;10.074;2024-02-23T23:13:32;99111.81;;;7.50;93.35
18504;BME280;9381;54.244;10.074;2024-02-23T23:18:32;99116.47;;;7.43;93.53
18504;BME280;9381;54.244;10.074;2024-02-23T23:23:32;99094.03;;;7.38;93.82
18504;BME280;9381;54.244;10.074;2024-02-23T23:28:33;99114.84;;;7.42;93.64
18504;BME280;9381;54.244;10.074;2024-02-23T23:33:33;99115.22;;;7.34;93.17
18504;BME280;9381;54.244;10.074;2024-02-23T23:38:33;99110.53;;;7.30;93.70
18504;BME280;9381;54.244;10.074;2024-02-23T23:43:33;99110.31;;;7.31;92.89
18504;BME280;9381;54.244;10.074;2024-02-23T23:48:34;99112.66;;;7.28;92.79
18504;BME280;9381;54.244;10.074;2024-02-23T23:53:34;99110.19;;;7.15;92.94
18504;BME280;9381;54.244;10.074;2024-02-23T23:58:34;99097.47;;;7.10;92.58
